sensor_id;sensor_type;location;lat;lon;timestamp;pressure;altitude;pressure_sealevel;temperature;humidity
62708;BME280;48769;51.624;5.886;2022-07-25T00:02:14;100936.44;;;22.78;87.32
62708;BME280;48769;51.624;5.886;2022-07-25T00:04:40;100932.53;;;22.73;88.46
62708;BME280;48769;51.624;5.886;2022-07-25T00:07:06;100931.50;;;22.74;88.49
62708;BME280;48769;51.624;5.886;2022-07-25T00:09:32;100929.13;;;22.71;88.11
62708;BME280;48769;51.624;5.886;2022-07-25T00:11:57;100915.31;;;22.66;88.46
62708;BME280;48769;51.624;5.886;2022-07-25T00:14:22;100919.28;;;22.61;88.82
62708;BME280;48769;51.624;5.886;2022-07-25T00:16:48;100900.09;;;22.56;88.08
62708;BME280;48769;51.624;5.886;2022-07-25T00:19:13;100903.63;;;22.39;88.93
62708;BME280;48769;51.624;5.886;2022-07-25T00:21:38;100909.94;;;22.30;89.48
62708;BME280;48769;51.624;5.886;2022-07-25T00:24:04;100910.38;;;22.25;90.04
62708;BME280;48769;51.624;5.886;2022-07-25T00:26:29;100898.31;;;22.29;90.45
62708;BME280;48769;51.624;5.886;2022-07-25T00:28:55;100893.41;;;22.25;90.52
62708;BME280;48769;51.624;5.886;2022-07-25T00:31:20;100894.72;;;22.21;90.85
62708;BME280;48769;51.624;5.886;2022-07-25T00:33:45;100887.53;;;22.11;90.85
62708;BME280;48769;51.624;5.886;2022-07-25T00:36:11;100879.75;;;22.08;90.76
62708;BME280;48769;51.624;5.886;2022-07-25T00:38:36;100885.31;;;22.07;90.67
62708;BME280;48769;51.624;5.886;2022-07-25T00:41:03;100887.41;;;22.03;91.31
62708;BME280;48769;51.624;5.886;2022-07-25T00:43:29;100888.28;;;22.04;91.50
62708;BME280;48769;51.624;5.886;2022-07-25T00:45:54;100880.06;;;22.05;91.73
62708;BME280;48769;51.624;5.886;2022-07-25T00:48:19;100888.44;;;22.02;91.74
62708;BME280;48769;51.624;5.886;2022-07-25T00:50:45;100885.06;;;22.00;91.92
62708;BME280;48769;51.624;5.886;2022-07-25T00:53:10;100878.81;;;22.00;91.23
62708;BME280;48769;51.624;5.886;2022-07-25T00:55:36;100873.44;;;22.00;90.90
62708;BME280;48769;51.624;5.886;2022-07-25T00:58:01;100863.84;;;21.97;90.86
62708;BME280;48769;51.624;5.886;2022-07-25T01:00:26;100864.16;;;21.94;90.99
62708;BME280;48769;51.624;5.886;2022-07-25T01:02:52;100872.53;;;21.91;91.16
62708;BME280;48769;51.624;5.886;2022-07-25T01:05:18;100854.66;;;21.90;90.95
62708;BME280;48769;51.624;5.886;2022-07-25T01:07:43;100851.31;;;21.88;90.98
62708;BME280;48769;51.624;5.886;2022-07-25T01:10:09;100858.66;;;21.86;91.53
62708;BME280;48769;51.624;5.886;2022-07-25T01:13:04;100857.28;;;21.82;91.56
62708;BME280;48769;51.624;5.886;2022-07-25T01:15:30;100853.22;;;21.78;91.82
62708;BME280;48769;51.624;5.886;2022-07-25T01:17:55;100859.56;;;21.77;91.92
62708;BME280;48769;51.624;5.886;2022-07-25T01:20:23;100846.59;;;21.72;91.71
62708;BME280;48769;51.624;5.886;2022-07-25T01:22:48;100841.34;;;21.70;91.85
62708;BME280;48769;51.624;5.886;2022-07-25T01:25:15;100840.69;;;21.68;91.98
62708;BME280;48769;51.624;5.886;2022-07-25T01:27:41;100842.66;;;21.66;91.83
62708;BME280;48769;51.624;5.886;2022-07-25T01:30:10;100833.06;;;21.64;91.92
62708;BME280;48769;51.624;5.886;2022-07-25T01:32:36;100831.53;;;21.61;91.79
62708;BME280;48769;51.624;5.886;2022-07-25T01:35:04;100822.75;;;21.59;91.88
62708;BME280;48769;51.624;5.886;2022-07-25T01:37:29;100829.16;;;21.58;91.92
62708;BME280;48769;51.624;5.886;2022-07-25T01:39:55;100818.53;;;21.57;91.79
62708;BME280;48769;51.624;5.886;2022-07-25T01:42:20;100822.34;;;21.54;92.04
62708;BME280;48769;51.624;5.886;2022-07-25T01:44:46;100820.69;;;21.53;91.82
62708;BME280;48769;51.624;5.886;2022-07-25T01:47:11;100819.00;;;21.52;91.60
62708;BME280;48769;51.624;5.886;2022-07-25T01:49:36;100819.28;;;21.49;91.87
62708;BME280;48769;51.624;5.886;2022-07-25T01:52:02;100819.44;;;21.47;91.93
62708;BME280;48769;51.624;5.886;2022-07-25T01:54:27;100806.28;;;21.44;92.21
62708;BME280;48769;51.624;5.886;2022-07-25T01:56:53;100808.13;;;21.44;91.98
62708;BME280;48769;51.624;5.886;2022-07-25T01:59:18;100807.47;;;21.42;91.91
62708;BME280;48769;51.624;5.886;2022-07-25T02:01:44;100806.44;;;21.43;92.07
62708;BME280;48769;51.624;5.886;2022-07-25T02:04:09;100809.44;;;21.40;92.06
62708;BME280;48769;51.624;5.886;2022-07-25T02:06:34;100808.59;;;21.39;92.04
62708;BME280;48769;51.624;5.886;2022-07-25T02:09:00;100803.34;;;21.38;92.15
62708;BME280;48769;51.624;5.886;2022-07-25T02:11:26;100799.69;;;21.39;91.89
62708;BME280;48769;51.624;5.886;2022-07-25T02:13:51;100790.22;;;21.35;91.85
62708;BME280;48769;51.624;5.886;2022-07-25T02:16:17;100786.81;;;21.33;92.04
62708;BME280;48769;51.624;5.886;2022-07-25T02:18:42;100783.44;;;21.31;91.67
62708;BME280;48769;51.624;5.886;2022-07-25T02:21:07;100785.44;;;21.29;91.61
62708;BME280;48769;51.624;5.886;2022-07-25T02:23:35;100783.91;;;21.26;91.52
62708;BME280;48769;51.624;5.886;2022-07-25T02:26:00;100782.03;;;21.27;91.82
62708;BME280;48769;51.624;5.886;2022-07-25T02:28:25;100775.97;;;21.24;91.55
62708;BME280;48769;51.624;5.886;2022-07-25T02:30:51;100771.59;;;21.23;91.72
62708;BME280;48769;51.624;5.886;2022-07-25T02:33:16;100768.22;;;21.21;92.00
62708;BME280;48769;51.624;5.886;2022-07-25T02:35:42;100764.84;;;21.19;91.76
62708;BME280;48769;51.624;5.886;2022-07-25T02:38:07;100768.50;;;21.18;91.59
62708;BME280;48769;51.624;5.886;2022-07-25T02:40:32;100760.75;;;21.15;91.74
62708;BME280;48769;51.624;5.886;2022-07-25T02:42:58;100768.78;;;21.15;91.89
62708;BME280;48769;51.624;5.886;2022-07-25T02:45:23;100757.09;;;21.16;92.14
62708;BME280;48769;51.624;5.886;2022-07-25T02:47:48;100756.38;;;21.14;92.12
62708;BME280;48769;51.624;5.886;2022-07-25T02:50:14;100756.66;;;21.11;92.42
62708;BME280;48769;51.624;5.886;2022-07-25T02:52:39;100751.28;;;21.11;92.74
62708;BME280;48769;51.624;5.886;2022-07-25T02:55:05;100751.59;;;21.08;92.88
62708;BME280;48769;51.624;5.886;2022-07-25T02:57:31;100753.59;;;21.06;92.61
62708;BME280;48769;51.624;5.886;2022-07-25T02:59:56;100752.72;;;21.06;92.45
62708;BME280;48769;51.624;5.886;2022-07-25T03:02:21;100745.53;;;21.06;92.42
62708;BME280;48769;51.624;5.886;2022-07-25T03:04:47;100745.69;;;21.05;92.51
62708;BME280;48769;51.624;5.886;2022-07-25T03:07:12;100739.47;;;21.04;91.95
62708;BME280;48769;51.624;5.886;2022-07-25T03:09:37;100738.94;;;21.00;91.96
62708;BME280;48769;51.624;5.886;2022-07-25T03:12:03;100739.22;;;20.97;92.20
62708;BME280;48769;51.624;5.886;2022-07-25T03:14:28;100740.66;;;20.92;92.39
62708;BME280;48769;51.624;5.886;2022-07-25T03:16:54;100744.34;;;20.91;92.54
62708;BME280;48769;51.624;5.886;2022-07-25T03:19:19;100738.25;;;20.89;92.77
62708;BME280;48769;51.624;5.886;2022-07-25T03:21:45;100734.72;;;20.88;92.83
62708;BME280;48769;51.624;5.886;2022-07-25T03:24:10;100733.06;;;20.87;91.79
62708;BME280;48769;51.624;5.886;2022-07-25T03:26:36;100728.53;;;20.88;92.01
62708;BME280;48769;51.624;5.886;2022-07-25T03:29:01;100727.81;;;20.86;92.68
62708;BME280;48769;51.624;5.886;2022-07-25T03:31:26;100720.94;;;20.83;93.02
62708;BME280;48769;51.624;5.886;2022-07-25T03:33:52;100716.41;;;20.84;93.04
62708;BME280;48769;51.624;5.886;2022-07-25T03:36:18;100712.72;;;20.85;92.66
62708;BME280;48769;51.624;5.886;2022-07-25T03:38:43;100707.34;;;20.85;92.25
62708;BME280;48769;51.624;5.886;2022-07-25T03:41:08;100702.25;;;20.82;91.56
62708;BME280;48769;51.624;5.886;2022-07-25T03:43:34;100703.56;;;20.77;91.77
62708;BME280;48769;51.624;5.886;2022-07-25T03:45:59;100706.25;;;20.77;91.56
62708;BME280;48769;51.624;5.886;2022-07-25T03:48:24;100704.53;;;20.76;92.09
62708;BME280;48769;51.624;5.886;2022-07-25T03:50:50;100706.25;;;20.77;92.79
62708;BME280;48769;51.624;5.886;2022-07-25T03:53:15;100705.25;;;20.78;92.76
62708;BME280;48769;51.624;5.886;2022-07-25T03:55:40;100704.25;;;20.80;92.56
62708;BME280;48769;51.624;5.886;2022-07-25T03:58:06;100698.50;;;20.74;91.23
62708;BME280;48769;51.624;5.886;2022-07-25T04:00:31;100697.34;;;20.77;91.74
62708;BME280;48769;51.624;5.886;2022-07-25T04:02:57;100698.88;;;20.80;92.30
62708;BME280;48769;51.624;5.886;2022-07-25T04:05:22;100696.91;;;20.82;92.39
62708;BME280;48769;51.624;5.886;2022-07-25T04:07:48;100698.56;;;20.83;92.35
62708;BME280;48769;51.624;5.886;2022-07-25T04:10:13;100694.63;;;20.87;92.25
62708;BME280;48769;51.624;5.886;2022-07-25T04:12:38;100699.53;;;20.91;91.55
62708;BME280;48769;51.624;5.886;2022-07-25T04:15:04;100707.59;;;20.91;92.46
62708;BME280;48769;51.624;5.886;2022-07-25T04:17:29;100695.72;;;20.94;92.21
62708;BME280;48769;51.624;5.886;2022-07-25T04:19:55;100692.72;;;20.97;92.31
62708;BME280;48769;51.624;5.886;2022-07-25T04:22:20;100684.38;;;21.00;92.74
62708;BME280;48769;51.624;5.886;2022-07-25T04:24:46;100687.44;;;21.05;92.45
62708;BME280;48769;51.624;5.886;2022-07-25T04:27:12;100686.59;;;21.05;92.38
62708;BME280;48769;51.624;5.886;2022-07-25T04:29:37;100680.09;;;21.07;92.48
62708;BME280;48769;51.624;5.886;2022-07-25T04:32:03;100674.41;;;21.10;91.86
62708;BME280;48769;51.624;5.886;2022-07-25T04:34:28;100676.94;;;21.12;90.99
62708;BME280;48769;51.624;5.886;2022-07-25T04:36:54;100673.09;;;21.14;90.87
62708;BME280;48769;51.624;5.886;2022-07-25T04:39:19;100673.81;;;21.16;90.50
62708;BME280;48769;51.624;5.886;2022-07-25T04:41:44;100668.13;;;21.19;90.78
62708;BME280;48769;51.624;5.886;2022-07-25T04:44:12;100668.81;;;21.21;90.17
62708;BME280;48769;51.624;5.886;2022-07-25T04:46:39;100669.50;;;21.23;89.93
62708;BME280;48769;51.624;5.886;2022-07-25T04:49:04;100671.88;;;21.27;90.12
62708;BME280;48769;51.624;5.886;2022-07-25T04:51:30;100675.94;;;21.31;90.15
62708;BME280;48769;51.624;5.886;2022-07-25T04:53:55;100661.25;;;21.35;90.55
62708;BME280;48769;51.624;5.886;2022-07-25T04:56:20;100671.38;;;21.41;89.91
62708;BME280;48769;51.624;5.886;2022-07-25T04:58:46;100666.22;;;21.47;89.61
62708;BME280;48769;51.624;5.886;2022-07-25T05:01:11;100668.16;;;21.55;89.52
62708;BME280;48769;51.624;5.886;2022-07-25T05:03:36;100677.13;;;21.64;89.12
62708;BME280;48769;51.624;5.886;2022-07-25T05:06:02;100669.50;;;21.77;87.46
62708;BME280;48769;51.624;5.886;2022-07-25T05:08:28;100675.19;;;21.92;89.34
62708;BME280;48769;51.624;5.886;2022-07-25T05:10:54;100665.53;;;22.07;86.24
62708;BME280;48769;51.624;5.886;2022-07-25T05:13:20;100659.06;;;22.44;87.37
62708;BME280;48769;51.624;5.886;2022-07-25T05:15:45;100652.50;;;22.89;83.96
62708;BME280;48769;51.624;5.886;2022-07-25T05:18:10;100661.25;;;23.33;82.27
62708;BME280;48769;51.624;5.886;2022-07-25T05:20:36;100671.41;;;23.72;81.70
62708;BME280;48769;51.624;5.886;2022-07-25T05:23:01;100659.72;;;24.05;78.97
62708;BME280;48769;51.624;5.886;2022-07-25T05:25:26;100661.06;;;24.09;75.95
62708;BME280;48769;51.624;5.886;2022-07-25T05:27:53;100665.25;;;24.11;76.70
62708;BME280;48769;51.624;5.886;2022-07-25T05:30:20;100651.22;;;24.48;76.42
62708;BME280;48769;51.624;5.886;2022-07-25T05:32:45;100650.50;;;24.55;74.56
62708;BME280;48769;51.624;5.886;2022-07-25T05:35:11;100645.53;;;24.75;72.51
62708;BME280;48769;51.624;5.886;2022-07-25T05:37:37;100657.31;;;24.82;72.37
62708;BME280;48769;51.624;5.886;2022-07-25T05:40:04;100661.75;;;24.66;73.94
62708;BME280;48769;51.624;5.886;2022-07-25T05:42:30;100652.88;;;24.58;72.94
62708;BME280;48769;51.624;5.886;2022-07-25T05:44:55;100660.03;;;24.18;75.31
62708;BME280;48769;51.624;5.886;2022-07-25T05:47:21;100653.50;;;23.88;74.84
62708;BME280;48769;51.624;5.886;2022-07-25T05:49:46;100646.78;;;23.84;75.46
62708;BME280;48769;51.624;5.886;2022-07-25T05:52:12;100653.84;;;23.85;75.11
62708;BME280;48769;51.624;5.886;2022-07-25T05:54:37;100655.19;;;23.81;76.24
62708;BME280;48769;51.624;5.886;2022-07-25T05:57:02;100655.88;;;23.74;76.47
62708;BME280;48769;51.624;5.886;2022-07-25T05:59:28;100657.06;;;23.80;77.81
62708;BME280;48769;51.624;5.886;2022-07-25T06:01:53;100646.41;;;23.95;76.40
62708;BME280;48769;51.624;5.886;2022-07-25T06:04:19;100651.31;;;23.91;77.23
62708;BME280;48769;51.624;5.886;2022-07-25T06:06:44;100641.34;;;23.92;73.58
62708;BME280;48769;51.624;5.886;2022-07-25T06:09:16;100642.53;;;23.97;74.00
62708;BME280;48769;51.624;5.886;2022-07-25T06:11:41;100642.72;;;23.96;75.81
62708;BME280;48769;51.624;5.886;2022-07-25T06:14:06;100653.00;;;23.84;75.64
62708;BME280;48769;51.624;5.886;2022-07-25T06:16:32;100649.13;;;23.78;75.67
62708;BME280;48769;51.624;5.886;2022-07-25T06:18:57;100656.72;;;23.75;76.34
62708;BME280;48769;51.624;5.886;2022-07-25T06:21:22;100648.97;;;23.72;75.71
62708;BME280;48769;51.624;5.886;2022-07-25T06:23:48;100650.47;;;23.66;75.84
62708;BME280;48769;51.624;5.886;2022-07-25T06:26:13;100656.53;;;23.60;75.21
62708;BME280;48769;51.624;5.886;2022-07-25T06:28:38;100655.34;;;23.63;74.43
62708;BME280;48769;51.624;5.886;2022-07-25T06:31:04;100659.06;;;23.53;74.48
62708;BME280;48769;51.624;5.886;2022-07-25T06:33:29;100657.53;;;23.51;73.35
62708;BME280;48769;51.624;5.886;2022-07-25T06:35:55;100654.47;;;23.46;73.65
62708;BME280;48769;51.624;5.886;2022-07-25T06:38:20;100653.00;;;23.43;73.78
62708;BME280;48769;51.624;5.886;2022-07-25T06:40:45;100663.25;;;23.48;72.96
62708;BME280;48769;51.624;5.886;2022-07-25T06:43:11;100663.06;;;23.49;73.78
62708;BME280;48769;51.624;5.886;2022-07-25T06:45:37;100669.50;;;23.56;73.59
62708;BME280;48769;51.624;5.886;2022-07-25T06:48:02;100664.44;;;23.62;73.57
62708;BME280;48769;51.624;5.886;2022-07-25T06:50:27;100660.78;;;23.71;71.87
62708;BME280;48769;51.624;5.886;2022-07-25T06:52:53;100662.28;;;23.90;71.56
62708;BME280;48769;51.624;5.886;2022-07-25T06:55:19;100672.56;;;24.02;70.91
62708;BME280;48769;51.624;5.886;2022-07-25T06:57:45;100669.66;;;24.04;70.40
62708;BME280;48769;51.624;5.886;2022-07-25T07:00:11;100667.09;;;24.35;69.96
62708;BME280;48769;51.624;5.886;2022-07-25T07:02:48;100652.22;;;24.39;67.67
62708;BME280;48769;51.624;5.886;2022-07-25T07:05:14;100671.16;;;24.23;70.00
62708;BME280;48769;51.624;5.886;2022-07-25T07:07:40;100670.50;;;24.13;70.46
62708;BME280;48769;51.624;5.886;2022-07-25T07:10:05;100670.16;;;24.08;70.57
62708;BME280;48769;51.624;5.886;2022-07-25T07:12:31;100656.50;;;24.09;71.63
62708;BME280;48769;51.624;5.886;2022-07-25T07:14:56;100652.31;;;24.07;69.88
62708;BME280;48769;51.624;5.886;2022-07-25T07:17:21;100655.38;;;23.95;70.58
62708;BME280;48769;51.624;5.886;2022-07-25T07:19:46;100662.28;;;23.90;70.05
62708;BME280;48769;51.624;5.886;2022-07-25T07:22:12;100651.00;;;23.86;69.43
62708;BME280;48769;51.624;5.886;2022-07-25T07:24:37;100648.44;;;23.93;69.42
62708;BME280;48769;51.624;5.886;2022-07-25T07:27:03;100646.75;;;23.92;70.04
62708;BME280;48769;51.624;5.886;2022-07-25T07:29:28;100647.78;;;23.74;68.80
62708;BME280;48769;51.624;5.886;2022-07-25T07:31:53;100657.06;;;23.80;71.05
62708;BME280;48769;51.624;5.886;2022-07-25T07:34:19;100662.63;;;23.87;69.98
62708;BME280;48769;51.624;5.886;2022-07-25T07:36:45;100658.19;;;24.18;68.42
62708;BME280;48769;51.624;5.886;2022-07-25T07:39:10;100655.41;;;24.90;66.19
62708;BME280;48769;51.624;5.886;2022-07-25T07:41:36;100651.06;;;24.81;66.70
62708;BME280;48769;51.624;5.886;2022-07-25T07:44:01;100657.44;;;24.49;67.00
62708;BME280;48769;51.624;5.886;2022-07-25T07:46:26;100673.22;;;24.13;69.73
62708;BME280;48769;51.624;5.886;2022-07-25T07:48:52;100680.47;;;24.04;72.80
62708;BME280;48769;51.624;5.886;2022-07-25T07:51:17;100680.28;;;24.14;70.92
62708;BME280;48769;51.624;5.886;2022-07-25T07:53:42;100678.38;;;24.47;69.57
62708;BME280;48769;51.624;5.886;2022-07-25T07:56:46;100674.91;;;24.78;69.29
62708;BME280;48769;51.624;5.886;2022-07-25T07:59:12;100669.63;;;24.84;67.65
62708;BME280;48769;51.624;5.886;2022-07-25T08:01:37;100670.31;;;24.86;67.19
62708;BME280;48769;51.624;5.886;2022-07-25T08:04:03;100666.91;;;24.45;66.97
62708;BME280;48769;51.624;5.886;2022-07-25T08:06:28;100672.78;;;24.40;68.21
62708;BME280;48769;51.624;5.886;2022-07-25T08:08:54;100678.91;;;24.42;67.35
62708;BME280;48769;51.624;5.886;2022-07-25T08:11:19;100673.69;;;24.41;66.69
62708;BME280;48769;51.624;5.886;2022-07-25T08:13:45;100672.34;;;24.29;66.09
62708;BME280;48769;51.624;5.886;2022-07-25T08:16:11;100679.91;;;24.33;66.82
62708;BME280;48769;51.624;5.886;2022-07-25T08:18:38;100679.56;;;24.36;67.06
62708;BME280;48769;51.624;5.886;2022-07-25T08:21:04;100675.00;;;24.37;66.56
62708;BME280;48769;51.624;5.886;2022-07-25T08:23:31;100675.84;;;24.54;67.27
62708;BME280;48769;51.624;5.886;2022-07-25T08:26:00;100680.25;;;24.86;68.45
62708;BME280;48769;51.624;5.886;2022-07-25T08:28:25;100668.81;;;25.15;68.06
62708;BME280;48769;51.624;5.886;2022-07-25T08:30:51;100672.44;;;25.30;65.53
62708;BME280;48769;51.624;5.886;2022-07-25T08:33:17;100674.97;;;25.32;66.18
62708;BME280;48769;51.624;5.886;2022-07-25T08:35:49;100684.19;;;25.37;65.53
62708;BME280;48769;51.624;5.886;2022-07-25T08:38:21;100681.69;;;25.13;65.70
62708;BME280;48769;51.624;5.886;2022-07-25T08:40:48;100681.50;;;25.06;66.26
62708;BME280;48769;51.624;5.886;2022-07-25T08:43:15;100676.81;;;25.00;67.14
62708;BME280;48769;51.624;5.886;2022-07-25T08:45:45;100686.78;;;25.00;68.07
62708;BME280;48769;51.624;5.886;2022-07-25T08:48:12;100685.81;;;25.24;68.21
62708;BME280;48769;51.624;5.886;2022-07-25T08:50:38;100697.09;;;25.35;68.37
62708;BME280;48769;51.624;5.886;2022-07-25T08:53:04;100684.03;;;25.16;65.72
62708;BME280;48769;51.624;5.886;2022-07-25T08:55:29;100695.47;;;25.18;67.76
62708;BME280;48769;51.624;5.886;2022-07-25T08:57:54;100695.56;;;25.33;68.69
62708;BME280;48769;51.624;5.886;2022-07-25T09:00:25;100695.63;;;25.48;68.14
62708;BME280;48769;51.624;5.886;2022-07-25T09:05:19;100694.78;;;25.24;67.25
62708;BME280;48769;51.624;5.886;2022-07-25T09:07:44;100683.84;;;25.40;66.70
62708;BME280;48769;51.624;5.886;2022-07-25T09:10:17;100686.78;;;25.54;66.28
62708;BME280;48769;51.624;5.886;2022-07-25T09:15:34;100691.91;;;25.95;67.80
62708;BME280;48769;51.624;5.886;2022-07-25T09:18:05;100683.44;;;25.98;67.26
62708;BME280;48769;51.624;5.886;2022-07-25T09:20:54;100682.22;;;26.00;64.74
62708;BME280;48769;51.624;5.886;2022-07-25T09:26:08;100708.44;;;26.00;64.53
62708;BME280;48769;51.624;5.886;2022-07-25T09:28:45;100701.19;;;26.15;65.16
62708;BME280;48769;51.624;5.886;2022-07-25T09:31:12;100697.31;;;25.95;65.40
62708;BME280;48769;51.624;5.886;2022-07-25T09:33:47;100698.41;;;25.85;65.33
62708;BME280;48769;51.624;5.886;2022-07-25T09:36:13;100700.69;;;25.97;67.38
62708;BME280;48769;51.624;5.886;2022-07-25T09:38:39;100704.41;;;26.33;66.95
62708;BME280;48769;51.624;5.886;2022-07-25T09:41:05;100716.78;;;26.66;66.19
62708;BME280;48769;51.624;5.886;2022-07-25T09:43:39;100715.94;;;26.65;65.00
62708;BME280;48769;51.624;5.886;2022-07-25T09:46:06;100716.59;;;26.52;64.18
62708;BME280;48769;51.624;5.886;2022-07-25T09:48:32;100719.09;;;26.54;66.17
62708;BME280;48769;51.624;5.886;2022-07-25T09:50:58;100730.59;;;26.56;67.60
62708;BME280;48769;51.624;5.886;2022-07-25T09:53:24;100723.41;;;26.78;65.10
62708;BME280;48769;51.624;5.886;2022-07-25T09:55:50;100721.88;;;27.05;65.80
62708;BME280;48769;51.624;5.886;2022-07-25T09:58:17;100715.41;;;27.06;63.61
62708;BME280;48769;51.624;5.886;2022-07-25T10:00:43;100729.34;;;27.18;64.53
62708;BME280;48769;51.624;5.886;2022-07-25T10:03:17;100728.53;;;27.17;64.26
62708;BME280;48769;51.624;5.886;2022-07-25T10:08:14;100734.38;;;27.06;64.49
62708;BME280;48769;51.624;5.886;2022-07-25T10:10:44;100715.63;;;26.90;64.33
62708;BME280;48769;51.624;5.886;2022-07-25T10:13:12;100739.84;;;26.76;64.62
62708;BME280;48769;51.624;5.886;2022-07-25T10:15:51;100732.56;;;26.62;65.42
62708;BME280;48769;51.624;5.886;2022-07-25T10:18:19;100730.22;;;26.74;64.85
62708;BME280;48769;51.624;5.886;2022-07-25T10:20:47;100720.50;;;26.79;64.92
62708;BME280;48769;51.624;5.886;2022-07-25T10:23:26;100720.19;;;26.89;64.02
62708;BME280;48769;51.624;5.886;2022-07-25T10:26:12;100729.34;;;27.03;63.70
62708;BME280;48769;51.624;5.886;2022-07-25T10:28:44;100732.91;;;27.18;62.87
62708;BME280;48769;51.624;5.886;2022-07-25T10:31:20;100722.31;;;27.09;61.12
62708;BME280;48769;51.624;5.886;2022-07-25T10:33:49;100732.06;;;27.03;62.08
62708;BME280;48769;51.624;5.886;2022-07-25T10:36:15;100746.56;;;26.80;63.12
62708;BME280;48769;51.624;5.886;2022-07-25T10:38:43;100744.41;;;26.76;63.31
62708;BME280;48769;51.624;5.886;2022-07-25T10:41:11;100749.94;;;26.83;64.35
62708;BME280;48769;51.624;5.886;2022-07-25T10:43:38;100746.47;;;26.89;65.09
62708;BME280;48769;51.624;5.886;2022-07-25T10:46:12;100736.84;;;27.01;64.38
62708;BME280;48769;51.624;5.886;2022-07-25T10:48:38;100735.88;;;26.94;63.90
62708;BME280;48769;51.624;5.886;2022-07-25T10:51:09;100728.59;;;27.09;61.06
62708;BME280;48769;51.624;5.886;2022-07-25T10:56:18;100738.94;;;27.35;59.65
62708;BME280;48769;51.624;5.886;2022-07-25T10:58:50;100730.63;;;27.37;58.61
62708;BME280;48769;51.624;5.886;2022-07-25T11:01:32;100728.38;;;27.25;57.21
62708;BME280;48769;51.624;5.886;2022-07-25T11:04:00;100721.44;;;27.38;54.18
62708;BME280;48769;51.624;5.886;2022-07-25T11:06:37;100714.41;;;27.43;54.91
62708;BME280;48769;51.624;5.886;2022-07-25T11:09:13;100712.78;;;27.49;55.24
62708;BME280;48769;51.624;5.886;2022-07-25T11:11:40;100729.28;;;27.47;56.59
62708;BME280;48769;51.624;5.886;2022-07-25T11:14:15;100726.94;;;27.44;57.11
62708;BME280;48769;51.624;5.886;2022-07-25T11:16:42;100733.47;;;27.50;58.11
62708;BME280;48769;51.624;5.886;2022-07-25T11:19:20;100730.13;;;27.69;57.04
62708;BME280;48769;51.624;5.886;2022-07-25T11:21:51;100725.47;;;27.85;55.18
62708;BME280;48769;51.624;5.886;2022-07-25T11:24:16;100721.91;;;27.84;54.42
62708;BME280;48769;51.624;5.886;2022-07-25T11:26:50;100728.19;;;27.63;54.96
62708;BME280;48769;51.624;5.886;2022-07-25T11:29:21;100735.47;;;27.26;55.51
62708;BME280;48769;51.624;5.886;2022-07-25T11:32:09;100739.44;;;27.09;56.78
62708;BME280;48769;51.624;5.886;2022-07-25T11:34:42;100745.97;;;27.00;57.72
62708;BME280;48769;51.624;5.886;2022-07-25T11:37:10;100745.22;;;27.06;56.94
62708;BME280;48769;51.624;5.886;2022-07-25T11:39:38;100739.81;;;27.06;55.95
62708;BME280;48769;51.624;5.886;2022-07-25T11:42:07;100752.94;;;27.17;57.77
62708;BME280;48769;51.624;5.886;2022-07-25T11:44:40;100760.63;;;27.35;57.13
62708;BME280;48769;51.624;5.886;2022-07-25T11:47:08;100756.25;;;27.34;55.42
62708;BME280;48769;51.624;5.886;2022-07-25T11:49:48;100758.59;;;27.22;56.16
62708;BME280;48769;51.624;5.886;2022-07-25T11:52:34;100751.13;;;27.24;55.82
62708;BME280;48769;51.624;5.886;2022-07-25T11:55:04;100764.78;;;27.31;56.72
62708;BME280;48769;51.624;5.886;2022-07-25T11:57:36;100759.41;;;27.38;54.48
62708;BME280;48769;51.624;5.886;2022-07-25T12:00:18;100757.19;;;27.12;55.50
62708;BME280;48769;51.624;5.886;2022-07-25T12:02:44;100763.94;;;27.01;55.70
62708;BME280;48769;51.624;5.886;2022-07-25T12:05:11;100769.84;;;26.60;57.79
62708;BME280;48769;51.624;5.886;2022-07-25T12:07:44;100765.81;;;26.86;56.94
62708;BME280;48769;51.624;5.886;2022-07-25T12:10:34;100760.75;;;27.12;56.25
62708;BME280;48769;51.624;5.886;2022-07-25T12:13:00;100768.03;;;27.26;56.06
62708;BME280;48769;51.624;5.886;2022-07-25T12:15:30;100761.22;;;27.16;55.25
62708;BME280;48769;51.624;5.886;2022-07-25T12:17:56;100756.03;;;27.14;55.06
62708;BME280;48769;51.624;5.886;2022-07-25T12:20:27;100766.66;;;27.16;54.67
62708;BME280;48769;51.624;5.886;2022-07-25T12:22:56;100777.50;;;27.16;55.16
62708;BME280;48769;51.624;5.886;2022-07-25T12:25:22;100768.34;;;27.17;55.43
62708;BME280;48769;51.624;5.886;2022-07-25T12:27:48;100780.31;;;27.22;56.17
62708;BME280;48769;51.624;5.886;2022-07-25T12:30:14;100779.44;;;27.37;57.14
62708;BME280;48769;51.624;5.886;2022-07-25T12:32:40;100794.47;;;27.39;56.90
62708;BME280;48769;51.624;5.886;2022-07-25T12:35:07;100786.63;;;27.30;56.04
62708;BME280;48769;51.624;5.886;2022-07-25T12:37:33;100777.97;;;27.19;56.16
62708;BME280;48769;51.624;5.886;2022-07-25T12:39:59;100784.22;;;27.20;56.11
62708;BME280;48769;51.624;5.886;2022-07-25T12:42:25;100783.38;;;27.19;56.63
62708;BME280;48769;51.624;5.886;2022-07-25T12:44:52;100781.78;;;27.10;55.67
62708;BME280;48769;51.624;5.886;2022-07-25T12:47:17;100792.44;;;27.12;56.71
62708;BME280;48769;51.624;5.886;2022-07-25T12:49:42;100788.34;;;27.16;56.64
62708;BME280;48769;51.624;5.886;2022-07-25T12:52:08;100794.41;;;27.33;57.43
62708;BME280;48769;51.624;5.886;2022-07-25T12:54:33;100800.38;;;27.43;56.76
62708;BME280;48769;51.624;5.886;2022-07-25T12:57:00;100809.25;;;27.52;57.22
62708;BME280;48769;51.624;5.886;2022-07-25T12:59:26;100806.66;;;27.43;56.96
62708;BME280;48769;51.624;5.886;2022-07-25T13:01:51;100801.78;;;27.09;57.49
62708;BME280;48769;51.624;5.886;2022-07-25T13:04:17;100800.56;;;26.97;57.61